sensor_id;sensor_type;location;lat;lon;timestamp;temperature;humidity
21061;DHT22;10689;50.836;3.266;2022-09-13T00:00:34;20.30;99.90
21061;DHT22;10689;50.836;3.266;2022-09-13T00:03:00;20.50;99.90
21061;DHT22;10689;50.836;3.266;2022-09-13T00:05:26;20.60;99.90
21061;DHT22;10689;50.836;3.266;2022-09-13T00:07:52;20.60;99.90
21061;DHT22;10689;50.836;3.266;2022-09-13T00:10:17;20.60;99.90
21061;DHT22;10689;50.836;3.266;2022-09-13T00:12:43;20.70;99.90
21061;DHT22;10689;50.836;3.266;2022-09-13T00:15:09;20.60;99.90
21061;DHT22;10689;50.836;3.266;2022-09-13T00:17:36;20.60;99.90
21061;DHT22;10689;50.836;3.266;2022-09-13T00:20:02;20.60;99.90
21061;DHT22;10689;50.836;3.266;2022-09-13T00:22:28;20.60;99.90
21061;DHT22;10689;50.836;3.266;2022-09-13T00:24:54;20.50;99.90
21061;DHT22;10689;50.836;3.266;2022-09-13T00:27:19;20.60;99.90
21061;DHT22;10689;50.836;3.266;2022-09-13T00:29:45;20.60;99.90
21061;DHT22;10689;50.836;3.266;2022-09-13T00:32:11;20.70;99.90
21061;DHT22;10689;50.836;3.266;2022-09-13T00:34:37;20.70;99.90
21061;DHT22;10689;50.836;3.266;2022-09-13T00:37:03;20.80;99.90
21061;DHT22;10689;50.836;3.266;2022-09-13T00:39:29;20.90;99.90
21061;DHT22;10689;50.836;3.266;2022-09-13T00:41:55;20.80;99.90
21061;DHT22;10689;50.836;3.266;2022-09-13T00:47:10;20.70;99.90
21061;DHT22;10689;50.836;3.266;2022-09-13T00:49:38;20.60;99.90
21061;DHT22;10689;50.836;3.266;2022-09-13T00:52:10;20.60;99.90
21061;DHT22;10689;50.836;3.266;2022-09-13T00:54:47;20.60;99.90
21061;DHT22;10689;50.836;3.266;2022-09-13T00:57:16;20.40;99.90
21061;DHT22;10689;50.836;3.266;2022-09-13T00:59:46;20.50;99.90
21061;DHT22;10689;50.836;3.266;2022-09-13T01:02:15;20.50;99.90
21061;DHT22;10689;50.836;3.266;2022-09-13T01:04:42;20.40;99.90
21061;DHT22;10689;50.836;3.266;2022-09-13T01:07:11;20.50;99.90
21061;DHT22;10689;50.836;3.266;2022-09-13T01:09:40;20.50;99.90
21061;DHT22;10689;50.836;3.266;2022-09-13T01:14:41;20.20;99.90
21061;DHT22;10689;50.836;3.266;2022-09-13T01:17:08;20.20;99.90
21061;DHT22;10689;50.836;3.266;2022-09-13T01:19:34;20.30;99.90
21061;DHT22;10689;50.836;3.266;2022-09-13T01:22:40;20.40;99.90
21061;DHT22;10689;50.836;3.266;2022-09-13T01:28:24;20.40;99.90
21061;DHT22;10689;50.836;3.266;2022-09-13T01:31:07;20.40;99.90
21061;DHT22;10689;50.836;3.266;2022-09-13T01:34:05;20.30;99.90
21061;DHT22;10689;50.836;3.266;2022-09-13T01:44:58;20.10;99.90
21061;DHT22;10689;50.836;3.266;2022-09-13T01:47:41;20.10;99.90
21061;DHT22;10689;50.836;3.266;2022-09-13T01:50:15;20.00;99.90
21061;DHT22;10689;50.836;3.266;2022-09-13T01:52:58;20.00;99.90
21061;DHT22;10689;50.836;3.266;2022-09-13T02:00:46;20.00;99.90
21061;DHT22;10689;50.836;3.266;2022-09-13T02:03:42;20.10;99.90
21061;DHT22;10689;50.836;3.266;2022-09-13T02:06:09;20.00;99.90
21061;DHT22;10689;50.836;3.266;2022-09-13T02:08:48;20.00;99.90
21061;DHT22;10689;50.836;3.266;2022-09-13T02:11:16;20.00;99.90
21061;DHT22;10689;50.836;3.266;2022-09-13T02:13:49;20.00;99.90
21061;DHT22;10689;50.836;3.266;2022-09-13T02:16:42;20.10;99.90
21061;DHT22;10689;50.836;3.266;2022-09-13T02:19:15;20.10;99.90
21061;DHT22;10689;50.836;3.266;2022-09-13T02:21:46;20.10;99.90
21061;DHT22;10689;50.836;3.266;2022-09-13T02:24:32;20.10;99.90
21061;DHT22;10689;50.836;3.266;2022-09-13T02:27:04;20.20;99.90
21061;DHT22;10689;50.836;3.266;2022-09-13T02:29:32;20.40;99.90
21061;DHT22;10689;50.836;3.266;2022-09-13T02:32:22;20.40;99.90
21061;DHT22;10689;50.836;3.266;2022-09-13T02:34:54;20.40;99.90
21061;DHT22;10689;50.836;3.266;2022-09-13T02:37:23;20.40;99.90
21061;DHT22;10689;50.836;3.266;2022-09-13T02:39:54;20.40;99.90
21061;DHT22;10689;50.836;3.266;2022-09-13T02:42:36;20.50;99.90
21061;DHT22;10689;50.836;3.266;2022-09-13T02:45:06;20.40;99.90
21061;DHT22;10689;50.836;3.266;2022-09-13T02:47:53;20.40;99.90
21061;DHT22;10689;50.836;3.266;2022-09-13T02:50:32;20.30;99.90
21061;DHT22;10689;50.836;3.266;2022-09-13T02:53:21;20.20;99.90
21061;DHT22;10689;50.836;3.266;2022-09-13T02:56:08;20.20;99.90
21061;DHT22;10689;50.836;3.266;2022-09-13T03:01:07;20.10;99.90
21061;DHT22;10689;50.836;3.266;2022-09-13T03:03:33;20.00;99.90
21061;DHT22;10689;50.836;3.266;2022-09-13T03:05:59;20.00;99.90
21061;DHT22;10689;50.836;3.266;2022-09-13T03:08:26;19.90;99.90
21061;DHT22;10689;50.836;3.266;2022-09-13T03:24:51;19.70;99.90
21061;DHT22;10689;50.836;3.266;2022-09-13T03:27:29;19.70;99.90
21061;DHT22;10689;50.836;3.266;2022-09-13T03:30:05;19.90;99.90
21061;DHT22;10689;50.836;3.266;2022-09-13T03:35:40;19.90;99.90
21061;DHT22;10689;50.836;3.266;2022-09-13T03:41:05;20.00;99.90
21061;DHT22;10689;50.836;3.266;2022-09-13T03:43:40;20.00;99.90
21061;DHT22;10689;50.836;3.266;2022-09-13T03:46:35;20.00;99.90
21061;DHT22;10689;50.836;3.266;2022-09-13T03:49:11;20.00;99.90
21061;DHT22;10689;50.836;3.266;2022-09-13T03:51:39;19.90;99.90
21061;DHT22;10689;50.836;3.266;2022-09-13T03:54:13;19.80;99.90
21061;DHT22;10689;50.836;3.266;2022-09-13T03:56:39;19.80;99.90
21061;DHT22;10689;50.836;3.266;2022-09-13T03:59:05;19.90;99.90
21061;DHT22;10689;50.836;3.266;2022-09-13T04:01:31;19.90;99.90
21061;DHT22;10689;50.836;3.266;2022-09-13T04:03:56;20.00;99.90
21061;DHT22;10689;50.836;3.266;2022-09-13T04:06:23;20.00;99.90
21061;DHT22;10689;50.836;3.266;2022-09-13T04:08:49;20.00;99.90
21061;DHT22;10689;50.836;3.266;2022-09-13T04:11:15;20.00;99.90
21061;DHT22;10689;50.836;3.266;2022-09-13T04:13:40;20.00;99.90
21061;DHT22;10689;50.836;3.266;2022-09-13T04:16:07;20.00;99.90
21061;DHT22;10689;50.836;3.266;2022-09-13T04:18:34;20.00;99.90
21061;DHT22;10689;50.836;3.266;2022-09-13T04:21:00;19.90;99.90
21061;DHT22;10689;50.836;3.266;2022-09-13T04:23:27;20.00;99.90
21061;DHT22;10689;50.836;3.266;2022-09-13T04:25:54;20.00;99.90
21061;DHT22;10689;50.836;3.266;2022-09-13T04:28:21;19.90;99.90
21061;DHT22;10689;50.836;3.266;2022-09-13T04:30:48;19.90;99.90
21061;DHT22;10689;50.836;3.266;2022-09-13T04:33:14;19.90;99.90
21061;DHT22;10689;50.836;3.266;2022-09-13T04:35:41;19.90;99.90
21061;DHT22;10689;50.836;3.266;2022-09-13T04:38:07;19.90;99.90
21061;DHT22;10689;50.836;3.266;2022-09-13T04:40:34;19.90;99.90
21061;DHT22;10689;50.836;3.266;2022-09-13T04:43:00;20.00;99.90
21061;DHT22;10689;50.836;3.266;2022-09-13T04:45:27;20.00;99.90
21061;DHT22;10689;50.836;3.266;2022-09-13T04:47:54;19.90;99.90
21061;DHT22;10689;50.836;3.266;2022-09-13T04:50:21;19.80;99.90
21061;DHT22;10689;50.836;3.266;2022-09-13T04:52:47;19.80;99.90
21061;DHT22;10689;50.836;3.266;2022-09-13T04:55:13;19.80;99.90
21061;DHT22;10689;50.836;3.266;2022-09-13T04:57:40;19.80;99.90
21061;DHT22;10689;50.836;3.266;2022-09-13T05:00:06;19.80;99.90
21061;DHT22;10689;50.836;3.266;2022-09-13T05:02:32;19.80;99.90
21061;DHT22;10689;50.836;3.266;2022-09-13T05:04:57;19.70;99.90
21061;DHT22;10689;50.836;3.266;2022-09-13T05:07:23;19.70;99.90
21061;DHT22;10689;50.836;3.266;2022-09-13T05:09:49;19.70;99.90
21061;DHT22;10689;50.836;3.266;2022-09-13T05:12:14;19.60;99.90
21061;DHT22;10689;50.836;3.266;2022-09-13T05:14:40;19.60;99.90
21061;DHT22;10689;50.836;3.266;2022-09-13T05:17:06;19.60;99.90
21061;DHT22;10689;50.836;3.266;2022-09-13T05:19:32;19.50;99.90
21061;DHT22;10689;50.836;3.266;2022-09-13T05:21:57;19.30;99.90
21061;DHT22;10689;50.836;3.266;2022-09-13T05:24:23;19.40;99.90
21061;DHT22;10689;50.836;3.266;2022-09-13T05:26:49;19.40;99.90
21061;DHT22;10689;50.836;3.266;2022-09-13T05:29:14;19.50;99.90
21061;DHT22;10689;50.836;3.266;2022-09-13T05:31:41;19.60;99.90
21061;DHT22;10689;50.836;3.266;2022-09-13T05:34:10;19.60;99.90
21061;DHT22;10689;50.836;3.266;2022-09-13T05:36:37;19.60;99.90
21061;DHT22;10689;50.836;3.266;2022-09-13T05:39:03;19.50;99.90
21061;DHT22;10689;50.836;3.266;2022-09-13T05:41:29;19.50;99.90
21061;DHT22;10689;50.836;3.266;2022-09-13T05:43:55;19.40;99.90
21061;DHT22;10689;50.836;3.266;2022-09-13T05:46:21;19.40;99.90
21061;DHT22;10689;50.836;3.266;2022-09-13T05:48:47;19.30;99.90
21061;DHT22;10689;50.836;3.266;2022-09-13T05:51:15;19.30;99.90
21061;DHT22;10689;50.836;3.266;2022-09-13T05:53:44;19.30;99.90
21061;DHT22;10689;50.836;3.266;2022-09-13T05:56:13;19.30;99.90
21061;DHT22;10689;50.836;3.266;2022-09-13T05:58:40;19.20;99.90
21061;DHT22;10689;50.836;3.266;2022-09-13T06:01:06;19.30;99.90
21061;DHT22;10689;50.836;3.266;2022-09-13T06:03:32;19.40;99.90
21061;DHT22;10689;50.836;3.266;2022-09-13T06:05:58;19.40;99.90
21061;DHT22;10689;50.836;3.266;2022-09-13T06:08:25;19.50;99.90
21061;DHT22;10689;50.836;3.266;2022-09-13T06:10:59;19.50;99.90
21061;DHT22;10689;50.836;3.266;2022-09-13T06:13:25;19.60;99.90
21061;DHT22;10689;50.836;3.266;2022-09-13T06:15:52;19.60;99.90
21061;DHT22;10689;50.836;3.266;2022-09-13T06:18:18;19.60;99.90
21061;DHT22;10689;50.836;3.266;2022-09-13T06:20:44;19.60;99.90
21061;DHT22;10689;50.836;3.266;2022-09-13T06:23:10;19.60;99.90
21061;DHT22;10689;50.836;3.266;2022-09-13T06:25:36;19.70;99.90
21061;DHT22;10689;50.836;3.266;2022-09-13T06:28:02;19.80;99.90
21061;DHT22;10689;50.836;3.266;2022-09-13T06:30:28;19.80;99.90
21061;DHT22;10689;50.836;3.266;2022-09-13T06:32:57;19.90;99.90
21061;DHT22;10689;50.836;3.266;2022-09-13T06:35:23;19.90;99.90
21061;DHT22;10689;50.836;3.266;2022-09-13T06:37:49;19.90;99.90
21061;DHT22;10689;50.836;3.266;2022-09-13T06:40:15;19.90;99.90
21061;DHT22;10689;50.836;3.266;2022-09-13T06:42:41;20.00;99.90
21061;DHT22;10689;50.836;3.266;2022-09-13T06:45:07;20.10;99.90
21061;DHT22;10689;50.836;3.266;2022-09-13T06:47:34;20.20;99.90
21061;DHT22;10689;50.836;3.266;2022-09-13T06:50:00;20.30;99.90
21061;DHT22;10689;50.836;3.266;2022-09-13T06:52:26;20.40;99.90
21061;DHT22;10689;50.836;3.266;2022-09-13T06:54:53;20.50;99.90
21061;DHT22;10689;50.836;3.266;2022-09-13T06:57:19;20.50;99.90
21061;DHT22;10689;50.836;3.266;2022-09-13T06:59:45;20.60;99.90
21061;DHT22;10689;50.836;3.266;2022-09-13T07:02:11;20.70;99.90
21061;DHT22;10689;50.836;3.266;2022-09-13T07:04:38;20.70;99.90
21061;DHT22;10689;50.836;3.266;2022-09-13T07:07:04;20.80;99.90
21061;DHT22;10689;50.836;3.266;2022-09-13T07:09:30;20.90;99.90
21061;DHT22;10689;50.836;3.266;2022-09-13T07:11:55;21.00;99.90
21061;DHT22;10689;50.836;3.266;2022-09-13T07:14:26;21.10;99.90
21061;DHT22;10689;50.836;3.266;2022-09-13T07:16:53;21.20;99.90
21061;DHT22;10689;50.836;3.266;2022-09-13T07:19:21;21.10;99.90
21061;DHT22;10689;50.836;3.266;2022-09-13T07:21:48;21.20;99.90
21061;DHT22;10689;50.836;3.266;2022-09-13T07:24:17;21.20;99.90
21061;DHT22;10689;50.836;3.266;2022-09-13T07:26:43;21.30;99.90
21061;DHT22;10689;50.836;3.266;2022-09-13T07:29:12;21.50;99.90
21061;DHT22;10689;50.836;3.266;2022-09-13T07:31:41;21.60;99.90
21061;DHT22;10689;50.836;3.266;2022-09-13T07:34:12;21.80;99.90
21061;DHT22;10689;50.836;3.266;2022-09-13T07:36:38;21.80;99.90
21061;DHT22;10689;50.836;3.266;2022-09-13T07:39:05;21.90;99.90
21061;DHT22;10689;50.836;3.266;2022-09-13T07:41:32;22.10;99.90
21061;DHT22;10689;50.836;3.266;2022-09-13T07:43:58;22.20;99.90
21061;DHT22;10689;50.836;3.266;2022-09-13T07:46:30;22.30;99.90
21061;DHT22;10689;50.836;3.266;2022-09-13T07:49:01;22.40;99.90
21061;DHT22;10689;50.836;3.266;2022-09-13T07:51:31;22.30;99.90
21061;DHT22;10689;50.836;3.266;2022-09-13T07:54:00;22.30;99.90
21061;DHT22;10689;50.836;3.266;2022-09-13T07:56:28;22.20;99.90
21061;DHT22;10689;50.836;3.266;2022-09-13T07:58:54;22.20;99.90
21061;DHT22;10689;50.836;3.266;2022-09-13T08:01:22;22.40;99.90
21061;DHT22;10689;50.836;3.266;2022-09-13T08:03:52;22.50;99.90
21061;DHT22;10689;50.836;3.266;2022-09-13T08:06:19;22.60;99.90
21061;DHT22;10689;50.836;3.266;2022-09-13T08:08:45;22.60;99.90
21061;DHT22;10689;50.836;3.266;2022-09-13T08:11:16;22.70;99.90
21061;DHT22;10689;50.836;3.266;2022-09-13T08:13:43;22.70;99.90
21061;DHT22;10689;50.836;3.266;2022-09-13T08:16:10;22.70;99.90
21061;DHT22;10689;50.836;3.266;2022-09-13T08:18:35;22.80;99.90
21061;DHT22;10689;50.836;3.266;2022-09-13T08:21:01;22.80;99.90
21061;DHT22;10689;50.836;3.266;2022-09-13T08:23:27;22.80;99.90
21061;DHT22;10689;50.836;3.266;2022-09-13T08:25:53;22.80;99.90
21061;DHT22;10689;50.836;3.266;2022-09-13T08:28:24;22.80;99.90
21061;DHT22;10689;50.836;3.266;2022-09-13T08:30:50;23.00;99.90
21061;DHT22;10689;50.836;3.266;2022-09-13T08:33:15;23.00;99.90
21061;DHT22;10689;50.836;3.266;2022-09-13T08:35:50;23.10;99.90
21061;DHT22;10689;50.836;3.266;2022-09-13T08:38:16;23.10;99.90
21061;DHT22;10689;50.836;3.266;2022-09-13T08:40:50;23.20;99.90
21061;DHT22;10689;50.836;3.266;2022-09-13T08:43:21;23.20;99.90
21061;DHT22;10689;50.836;3.266;2022-09-13T08:46:04;23.10;99.90
21061;DHT22;10689;50.836;3.266;2022-09-13T08:48:34;23.20;99.90
21061;DHT22;10689;50.836;3.266;2022-09-13T08:51:04;23.20;99.90
21061;DHT22;10689;50.836;3.266;2022-09-13T08:53:43;23.20;99.90
21061;DHT22;10689;50.836;3.266;2022-09-13T09:07:15;23.40;99.90
21061;DHT22;10689;50.836;3.266;2022-09-13T09:09:53;23.60;99.90
21061;DHT22;10689;50.836;3.266;2022-09-13T09:12:32;23.60;99.90
21061;DHT22;10689;50.836;3.266;2022-09-13T09:15:07;23.70;99.90
21061;DHT22;10689;50.836;3.266;2022-09-13T09:17:47;23.70;99.90
21061;DHT22;10689;50.836;3.266;2022-09-13T09:23:20;23.80;99.90
21061;DHT22;10689;50.836;3.266;2022-09-13T09:25:45;23.80;99.90
21061;DHT22;10689;50.836;3.266;2022-09-13T09:28:16;23.80;99.90
21061;DHT22;10689;50.836;3.266;2022-09-13T09:36:00;24.20;99.90
21061;DHT22;10689;50.836;3.266;2022-09-13T09:41:05;24.40;99.90
21061;DHT22;10689;50.836;3.266;2022-09-13T09:46:28;24.80;99.90
21061;DHT22;10689;50.836;3.266;2022-09-13T09:49:01;25.00;99.90
21061;DHT22;10689;50.836;3.266;2022-09-13T09:51:30;25.20;99.90
21061;DHT22;10689;50.836;3.266;2022-09-13T09:54:01;25.40;99.90
21061;DHT22;10689;50.836;3.266;2022-09-13T09:56:32;25.60;99.90
21061;DHT22;10689;50.836;3.266;2022-09-13T09:58:58;25.50;99.90
21061;DHT22;10689;50.836;3.266;2022-09-13T10:01:27;25.20;99.90
21061;DHT22;10689;50.836;3.266;2022-09-13T10:04:00;25.20;99.90
21061;DHT22;10689;50.836;3.266;2022-09-13T10:06:27;25.10;99.90
21061;DHT22;10689;50.836;3.266;2022-09-13T10:09:03;25.10;99.90
21061;DHT22;10689;50.836;3.266;2022-09-13T10:11:39;25.20;99.90
21061;DHT22;10689;50.836;3.266;2022-09-13T10:22:24;25.70;99.90
21061;DHT22;10689;50.836;3.266;2022-09-13T10:24:50;25.50;99.90
21061;DHT22;10689;50.836;3.266;2022-09-13T10:29:52;25.00;99.90
21061;DHT22;10689;50.836;3.266;2022-09-13T10:32:20;25.00;99.90
21061;DHT22;10689;50.836;3.266;2022-09-13T10:34:47;25.00;99.90
21061;DHT22;10689;50.836;3.266;2022-09-13T10:37:26;25.10;99.90
21061;DHT22;10689;50.836;3.266;2022-09-13T10:40:11;25.10;99.90
21061;DHT22;10689;50.836;3.266;2022-09-13T10:42:51;25.20;99.90
21061;DHT22;10689;50.836;3.266;2022-09-13T10:45:22;25.20;99.90
21061;DHT22;10689;50.836;3.266;2022-09-13T10:47:51;25.30;99.90
21061;DHT22;10689;50.836;3.266;2022-09-13T10:50:22;25.40;99.90
21061;DHT22;10689;50.836;3.266;2022-09-13T10:52:55;25.50;99.90
21061;DHT22;10689;50.836;3.266;2022-09-13T10:55:26;25.70;99.90
21061;DHT22;10689;50.836;3.266;2022-09-13T11:00:43;26.20;99.90
21061;DHT22;10689;50.836;3.266;2022-09-13T11:09:14;26.50;99.90
21061;DHT22;10689;50.836;3.266;2022-09-13T11:12:05;26.50;99.90
21061;DHT22;10689;50.836;3.266;2022-09-13T11:22:44;26.60;99.90
21061;DHT22;10689;50.836;3.266;2022-09-13T11:25:29;26.50;99.90
21061;DHT22;10689;50.836;3.266;2022-09-13T11:45:01;24.20;99.90
21061;DHT22;10689;50.836;3.266;2022-09-13T11:53:26;23.50;99.90
21061;DHT22;10689;50.836;3.266;2022-09-13T11:56:04;23.50;99.90
21061;DHT22;10689;50.836;3.266;2022-09-13T11:58:44;23.60;99.90
21061;DHT22;10689;50.836;3.266;2022-09-13T12:01:20;23.60;99.90
21061;DHT22;10689;50.836;3.266;2022-09-13T12:06:39;23.40;99.90
21061;DHT22;10689;50.836;3.266;2022-09-13T12:09:28;23.40;99.90
21061;DHT22;10689;50.836;3.266;2022-09-13T12:12:06;23.40;99.90
21061;DHT22;10689;50.836;3.266;2022-09-13T12:14:46;23.30;99.90
21061;DHT22;10689;50.836;3.266;2022-09-13T12:17:28;23.20;99.90
21061;DHT22;10689;50.836;3.266;2022-09-13T12:19:57;23.20;99.90
21061;DHT22;10689;50.836;3.266;2022-09-13T12:22:27;23.30;99.90
21061;DHT22;10689;50.836;3.266;2022-09-13T12:25:01;23.30;99.90
21061;DHT22;10689;50.836;3.266;2022-09-13T12:27:37;23.30;99.90
21061;DHT22;10689;50.836;3.266;2022-09-13T12:30:16;23.30;99.90
21061;DHT22;10689;50.836;3.266;2022-09-13T12:32:45;23.30;99.90
21061;DHT22;10689;50.836;3.266;2022-09-13T12:40:49;23.10;99.90
21061;DHT22;10689;50.836;3.266;2022-09-13T12:43:41;23.20;99.90
21061;DHT22;10689;50.836;3.266;2022-09-13T12:54:21;23.20;99.90
21061;DHT22;10689;50.836;3.266;2022-09-13T12:56:58;23.20;99.90
21061;DHT22;10689;50.836;3.266;2022-09-13T13:02:00;23.00;99.90
21061;DHT22;10689;50.836;3.266;2022-09-13T13:04:30;23.00;99.90
21061;DHT22;10689;50.836;3.266;2022-09-13T13:07:03;22.90;99.90
21061;DHT22;10689;50.836;3.266;2022-09-13T13:09:42;22.90;99.90
21061;DHT22;10689;50.836;3.266;2022-09-13T13:12:32;22.90;99.90
21061;DHT22;10689;50.836;3.266;2022-09-13T13:17:52;22.90;99.90
21061;DHT22;10689;50.836;3.266;2022-09-13T13:21:02;23.00;99.90
21061;DHT22;10689;50.836;3.266;2022-09-13T13:23:36;23.10;99.90
21061;DHT22;10689;50.836;3.266;2022-09-13T13:26:50;23.30;99.90
21061;DHT22;10689;50.836;3.266;2022-09-13T13:29:31;23.30;99.90
21061;DHT22;10689;50.836;3.266;2022-09-13T13:42:22;23.30;99.90
21061;DHT22;10689;50.836;3.266;2022-09-13T13:49:52;23.40;99.90
21061;DHT22;10689;50.836;3.266;2022-09-13T13:52:50;23.40;99.90
21061;DHT22;10689;50.836;3.266;2022-09-13T13:58:23;23.60;99.90
21061;DHT22;10689;50.836;3.266;2022-09-13T14:00:51;23.60;99.90
21061;DHT22;10689;50.836;3.266;2022-09-13T14:03:48;23.50;99.90
21061;DHT22;10689;50.836;3.266;2022-09-13T14:06:35;23.50;99.90
21061;DHT22;10689;50.836;3.266;2022-09-13T14:12:14;23.10;99.90
21061;DHT22;10689;50.836;3.266;2022-09-13T14:21:15;22.80;99.90
21061;DHT22;10689;50.836;3.266;2022-09-13T14:23:42;22.80;99.90
21061;DHT22;10689;50.836;3.266;2022-09-13T14:26:09;22.80;99.90
21061;DHT22;10689;50.836;3.266;2022-09-13T14:28:36;22.80;99.90
21061;DHT22;10689;50.836;3.266;2022-09-13T14:31:02;22.90;99.90
21061;DHT22;10689;50.836;3.266;2022-09-13T14:33:31;22.90;99.90
21061;DHT22;10689;50.836;3.266;2022-09-13T14:36:06;22.90;99.90
21061;DHT22;10689;50.836;3.266;2022-09-13T14:38:34;22.90;99.90
21061;DHT22;10689;50.836;3.266;2022-09-13T14:41:22;23.00;99.90
21061;DHT22;10689;50.836;3.266;2022-09-13T14:44:15;22.90;99.90
21061;DHT22;10689;50.836;3.266;2022-09-13T14:46:43;22.70;99.90
21061;DHT22;10689;50.836;3.266;2022-09-13T14:49:17;22.50;99.90
21061;DHT22;10689;50.836;3.266;2022-09-13T14:51:49;22.50;99.90
21061;DHT22;10689;50.836;3.266;2022-09-13T14:54:40;22.40;99.90
21061;DHT22;10689;50.836;3.266;2022-09-13T14:57:17;22.40;99.90
21061;DHT22;10689;50.836;3.266;2022-09-13T14:59:49;22.40;99.90
21061;DHT22;10689;50.836;3.266;2022-09-13T15:02:20;22.40;99.90
21061;DHT22;10689;50.836;3.266;2022-09-13T15:04:58;22.60;99.90
21061;DHT22;10689;50.836;3.266;2022-09-13T15:07:33;22.60;99.90
21061;DHT22;10689;50.836;3.266;2022-09-13T15:10:18;22.50;99.90
21061;DHT22;10689;50.836;3.266;2022-09-13T15:18:00;22.30;99.90
21061;DHT22;10689;50.836;3.266;2022-09-13T15:20:44;22.40;99.90
21061;DHT22;10689;50.836;3.266;2022-09-13T15:23:16;22.40;99.90
21061;DHT22;10689;50.836;3.266;2022-09-13T15:25:48;22.40;99.90
21061;DHT22;10689;50.836;3.266;2022-09-13T15:28:23;22.40;99.90
21061;DHT22;10689;50.836;3.266;2022-09-13T15:30:49;22.40;99.90
21061;DHT22;10689;50.836;3.266;2022-09-13T15:33:26;22.30;99.90
21061;DHT22;10689;50.836;3.266;2022-09-13T15:36:29;22.30;99.90
21061;DHT22;10689;50.836;3.266;2022-09-13T15:41:31;22.10;99.90
21061;DHT22;10689;50.836;3.266;2022-09-13T15:44:03;22.10;99.90
21061;DHT22;10689;50.836;3.266;2022-09-13T15:46:29;22.20;99.90
21061;DHT22;10689;50.836;3.266;2022-09-13T15:49:00;22.30;99.90
21061;DHT22;10689;50.836;3.266;2022-09-13T15:51:27;22.20;99.90
21061;DHT22;10689;50.836;3.266;2022-09-13T15:53:53;22.20;99.90
21061;DHT22;10689;50.836;3.266;2022-09-13T15:56:21;22.10;99.90
21061;DHT22;10689;50.836;3.266;2022-09-13T15:58:47;22.10;99.90
21061;DHT22;10689;50.836;3.266;2022-09-13T16:01:14;22.10;99.90
21061;DHT22;10689;50.836;3.266;2022-09-13T16:03:40;22.30;99.90
21061;DHT22;10689;50.836;3.266;2022-09-13T16:06:07;22.30;99.90
21061;DHT22;10689;50.836;3.266;2022-09-13T16:08:34;22.40;99.90
21061;DHT22;10689;50.836;3.266;2022-09-13T16:11:00;22.40;99.90
21061;DHT22;10689;50.836;3.266;2022-09-13T16:13:26;22.30;99.90
21061;DHT22;10689;50.836;3.266;2022-09-13T16:15:52;22.20;99.90
21061;DHT22;10689;50.836;3.266;2022-09-13T16:18:18;22.10;99.90
21061;DHT22;10689;50.836;3.266;2022-09-13T16:20:44;22.00;99.90
21061;DHT22;10689;50.836;3.266;2022-09-13T16:23:10;21.90;99.90
21061;DHT22;10689;50.836;3.266;2022-09-13T16:25:36;21.90;99.90
21061;DHT22;10689;50.836;3.266;2022-09-13T16:28:04;21.80;99.90
21061;DHT22;10689;50.836;3.266;2022-09-13T16:30:29;21.80;99.90
21061;DHT22;10689;50.836;3.266;2022-09-13T16:32:56;21.90;99.90
21061;DHT22;10689;50.836;3.266;2022-09-13T16:35:23;21.90;99.90
21061;DHT22;10689;50.836;3.266;2022-09-13T16:37:50;21.90;99.90
21061;DHT22;10689;50.836;3.266;2022-09-13T16:40:17;21.90;99.90
21061;DHT22;10689;50.836;3.266;2022-09-13T16:42:44;21.90;99.90
21061;DHT22;10689;50.836;3.266;2022-09-13T16:45:10;21.90;99.90
21061;DHT22;10689;50.836;3.266;2022-09-13T16:47:36;21.80;99.90
21061;DHT22;10689;50.836;3.266;2022-09-13T16:50:04;21.80;99.90
21061;DHT22;10689;50.836;3.266;2022-09-13T16:52:31;21.80;99.90
21061;DHT22;10689;50.836;3.266;2022-09-13T16:54:57;21.70;99.90
21061;DHT22;10689;50.836;3.266;2022-09-13T16:57:24;21.60;99.90
21061;DHT22;10689;50.836;3.266;2022-09-13T16:59:51;21.50;99.90
21061;DHT22;10689;50.836;3.266;2022-09-13T17:02:18;21.50;99.90
21061;DHT22;10689;50.836;3.266;2022-09-13T17:04:44;21.50;99.90
21061;DHT22;10689;50.836;3.266;2022-09-13T17:07:11;21.40;99.90
21061;DHT22;10689;50.836;3.266;2022-09-13T17:09:38;21.30;99.90
21061;DHT22;10689;50.836;3.266;2022-09-13T17:12:06;21.30;99.90
21061;DHT22;10689;50.836;3.266;2022-09-13T17:14:32;21.20;99.90
21061;DHT22;10689;50.836;3.266;2022-09-13T17:16:58;21.10;99.90
21061;DHT22;10689;50.836;3.266;2022-09-13T17:19:30;21.10;99.90
21061;DHT22;10689;50.836;3.266;2022-09-13T17:21:59;21.10;99.90
21061;DHT22;10689;50.836;3.266;2022-09-13T17:24:26;21.10;99.90
21061;DHT22;10689;50.836;3.266;2022-09-13T17:26:53;21.10;99.90
21061;DHT22;10689;50.836;3.266;2022-09-13T17:29:19;21.10;99.90
21061;DHT22;10689;50.836;3.266;2022-09-13T17:31:45;21.00;99.90
21061;DHT22;10689;50.836;3.266;2022-09-13T17:34:11;21.00;99.90
21061;DHT22;10689;50.836;3.266;2022-09-13T17:36:39;20.90;99.90
21061;DHT22;10689;50.836;3.266;2022-09-13T17:39:05;20.90;99.90
21061;DHT22;10689;50.836;3.266;2022-09-13T17:41:31;20.80;99.90
21061;DHT22;10689;50.836;3.266;2022-09-13T17:43:57;20.80;99.90
21061;DHT22;10689;50.836;3.266;2022-09-13T17:46:25;20.70;99.90
21061;DHT22;10689;50.836;3.266;2022-09-13T17:48:54;20.70;99.90
21061;DHT22;10689;50.836;3.266;2022-09-13T17:51:21;20.70;99.90
21061;DHT22;10689;50.836;3.266;2022-09-13T17:53:52;20.60;99.90
21061;DHT22;10689;50.836;3.266;2022-09-13T17:56:30;20.70;99.90
21061;DHT22;10689;50.836;3.266;2022-09-13T17:59:02;20.70;99.90
21061;DHT22;10689;50.836;3.266;2022-09-13T18:01:29;20.70;99.90
21061;DHT22;10689;50.836;3.266;2022-09-13T18:03:54;20.70;99.90
21061;DHT22;10689;50.836;3.266;2022-09-13T18:06:20;20.60;99.90
21061;DHT22;10689;50.836;3.266;2022-09-13T18:08:46;20.60;99.90
21061;DHT22;10689;50.836;3.266;2022-09-13T18:11:15;20.60;99.90
21061;DHT22;10689;50.836;3.266;2022-09-13T18:13:43;20.70;99.90
21061;DHT22;10689;50.836;3.266;2022-09-13T18:16:15;20.60;99.90
21061;DHT22;10689;50.836;3.266;2022-09-13T18:18:41;20.60;99.90
21061;DHT22;10689;50.836;3.266;2022-09-13T18:21:10;20.50;99.90
21061;DHT22;10689;50.836;3.266;2022-09-13T18:23:39;20.40;99.90
21061;DHT22;10689;50.836;3.266;2022-09-13T18:26:07;20.40;99.90
21061;DHT22;10689;50.836;3.266;2022-09-13T18:28:34;20.20;99.90
21061;DHT22;10689;50.836;3.266;2022-09-13T18:31:02;20.20;99.90
21061;DHT22;10689;50.836;3.266;2022-09-13T18:33:30;20.30;99.90
21061;DHT22;10689;50.836;3.266;2022-09-13T18:38:23;20.30;99.90
21061;DHT22;10689;50.836;3.266;2022-09-13T18:41:05;20.40;99.90
21061;DHT22;10689;50.836;3.266;2022-09-13T18:43:31;20.20;99.90
21061;DHT22;10689;50.836;3.266;2022-09-13T18:46:00;20.10;99.90
21061;DHT22;10689;50.836;3.266;2022-09-13T18:48:30;20.10;99.90
21061;DHT22;10689;50.836;3.266;2022-09-13T18:50:56;20.00;99.90